sensor_id;sensor_type;location;lat;lon;timestamp;P1;durP1;ratioP1;P2;durP2;ratioP2
52974;SDS011;38839;45.186;5.720;2023-07-24T00:00:43;13.68;;;4.20;;
52974;SDS011;38839;45.186;5.720;2023-07-24T00:03:08;7.28;;;3.58;;
52974;SDS011;38839;45.186;5.720;2023-07-24T00:05:34;7.97;;;4.18;;
52974;SDS011;38839;45.186;5.720;2023-07-24T00:07:59;6.13;;;3.40;;
52974;SDS011;38839;45.186;5.720;2023-07-24T00:10:25;7.68;;;3.92;;
52974;SDS011;38839;45.186;5.720;2023-07-24T00:12:50;7.20;;;3.63;;
52974;SDS011;38839;45.186;5.720;2023-07-24T00:15:15;6.75;;;3.80;;
52974;SDS011;38839;45.186;5.720;2023-07-24T00:17:41;8.20;;;3.60;;
52974;SDS011;38839;45.186;5.720;2023-07-24T00:20:06;7.97;;;4.00;;
52974;SDS011;38839;45.186;5.720;2023-07-24T00:22:32;5.47;;;3.25;;
52974;SDS011;38839;45.186;5.720;2023-07-24T00:24:57;10.40;;;3.83;;
52974;SDS011;38839;45.186;5.720;2023-07-24T00:27:22;6.78;;;3.40;;
52974;SDS011;38839;45.186;5.720;2023-07-24T00:29:48;9.90;;;3.65;;
52974;SDS011;38839;45.186;5.720;2023-07-24T00:32:15;5.95;;;4.05;;
52974;SDS011;38839;45.186;5.720;2023-07-24T00:34:40;6.50;;;3.53;;
52974;SDS011;38839;45.186;5.720;2023-07-24T00:37:05;7.03;;;3.60;;
52974;SDS011;38839;45.186;5.720;2023-07-24T00:39:31;8.30;;;4.18;;
52974;SDS011;38839;45.186;5.720;2023-07-24T00:41:56;5.25;;;3.35;;
52974;SDS011;38839;45.186;5.720;2023-07-24T00:44:21;12.32;;;4.22;;
52974;SDS011;38839;45.186;5.720;2023-07-24T00:46:47;6.65;;;3.20;;
52974;SDS011;38839;45.186;5.720;2023-07-24T00:49:12;5.80;;;3.70;;
52974;SDS011;38839;45.186;5.720;2023-07-24T00:51:38;7.15;;;3.70;;
52974;SDS011;38839;45.186;5.720;2023-07-24T00:54:05;8.18;;;3.40;;
52974;SDS011;38839;45.186;5.720;2023-07-24T00:56:32;6.32;;;3.53;;
52974;SDS011;38839;45.186;5.720;2023-07-24T00:58:59;6.10;;;3.72;;
52974;SDS011;38839;45.186;5.720;2023-07-24T01:01:24;5.03;;;3.20;;
52974;SDS011;38839;45.186;5.720;2023-07-24T01:03:50;5.68;;;3.47;;
52974;SDS011;38839;45.186;5.720;2023-07-24T01:06:16;6.00;;;3.63;;
52974;SDS011;38839;45.186;5.720;2023-07-24T01:08:42;6.65;;;3.53;;
52974;SDS011;38839;45.186;5.720;2023-07-24T01:13:40;8.35;;;3.83;;
52974;SDS011;38839;45.186;5.720;2023-07-24T01:16:20;6.45;;;3.60;;
52974;SDS011;38839;45.186;5.720;2023-07-24T01:18:47;5.93;;;3.50;;
52974;SDS011;38839;45.186;5.720;2023-07-24T01:21:16;9.10;;;3.95;;
52974;SDS011;38839;45.186;5.720;2023-07-24T01:23:53;8.98;;;3.75;;
52974;SDS011;38839;45.186;5.720;2023-07-24T01:26:23;5.15;;;3.40;;
52974;SDS011;38839;45.186;5.720;2023-07-24T01:28:50;6.88;;;3.72;;
52974;SDS011;38839;45.186;5.720;2023-07-24T01:31:15;4.32;;;3.45;;
52974;SDS011;38839;45.186;5.720;2023-07-24T01:33:42;6.45;;;3.78;;
52974;SDS011;38839;45.186;5.720;2023-07-24T01:36:10;6.90;;;3.60;;
52974;SDS011;38839;45.186;5.720;2023-07-24T01:38:37;7.40;;;3.75;;
52974;SDS011;38839;45.186;5.720;2023-07-24T01:41:03;4.82;;;3.35;;
52974;SDS011;38839;45.186;5.720;2023-07-24T01:43:29;7.90;;;3.25;;
52974;SDS011;38839;45.186;5.720;2023-07-24T01:45:55;5.68;;;3.25;;
52974;SDS011;38839;45.186;5.720;2023-07-24T01:48:21;8.00;;;3.70;;
52974;SDS011;38839;45.186;5.720;2023-07-24T01:50:46;6.45;;;3.47;;
52974;SDS011;38839;45.186;5.720;2023-07-24T01:53:12;7.15;;;3.38;;
52974;SDS011;38839;45.186;5.720;2023-07-24T01:55:38;6.15;;;3.85;;
52974;SDS011;38839;45.186;5.720;2023-07-24T01:58:03;6.95;;;3.80;;
52974;SDS011;38839;45.186;5.720;2023-07-24T02:00:29;10.13;;;3.58;;
52974;SDS011;38839;45.186;5.720;2023-07-24T02:02:54;12.50;;;4.30;;
52974;SDS011;38839;45.186;5.720;2023-07-24T02:05:20;6.15;;;3.47;;
52974;SDS011;38839;45.186;5.720;2023-07-24T02:07:45;8.73;;;4.03;;
52974;SDS011;38839;45.186;5.720;2023-07-24T02:10:10;9.45;;;3.50;;
52974;SDS011;38839;45.186;5.720;2023-07-24T02:12:36;4.47;;;2.92;;
52974;SDS011;38839;45.186;5.720;2023-07-24T02:15:01;9.60;;;3.40;;
52974;SDS011;38839;45.186;5.720;2023-07-24T02:17:27;9.45;;;3.78;;
52974;SDS011;38839;45.186;5.720;2023-07-24T02:19:52;10.82;;;3.78;;
52974;SDS011;38839;45.186;5.720;2023-07-24T02:22:18;12.73;;;3.83;;
52974;SDS011;38839;45.186;5.720;2023-07-24T02:24:43;5.28;;;3.25;;
52974;SDS011;38839;45.186;5.720;2023-07-24T02:29:37;7.95;;;3.53;;
52974;SDS011;38839;45.186;5.720;2023-07-24T02:32:02;6.88;;;3.70;;
52974;SDS011;38839;45.186;5.720;2023-07-24T02:34:28;8.55;;;3.55;;
52974;SDS011;38839;45.186;5.720;2023-07-24T02:36:53;6.10;;;3.38;;
52974;SDS011;38839;45.186;5.720;2023-07-24T02:39:19;4.97;;;3.45;;
52974;SDS011;38839;45.186;5.720;2023-07-24T02:41:45;5.25;;;3.47;;
52974;SDS011;38839;45.186;5.720;2023-07-24T02:44:10;8.52;;;3.72;;
52974;SDS011;38839;45.186;5.720;2023-07-24T02:46:36;6.00;;;3.20;;
52974;SDS011;38839;45.186;5.720;2023-07-24T02:49:01;4.00;;;3.10;;
52974;SDS011;38839;45.186;5.720;2023-07-24T02:51:27;5.72;;;3.70;;
52974;SDS011;38839;45.186;5.720;2023-07-24T02:53:55;6.07;;;3.42;;
52974;SDS011;38839;45.186;5.720;2023-07-24T02:56:20;5.67;;;3.13;;
52974;SDS011;38839;45.186;5.720;2023-07-24T02:58:46;4.35;;;3.28;;
52974;SDS011;38839;45.186;5.720;2023-07-24T03:01:11;7.88;;;3.72;;
52974;SDS011;38839;45.186;5.720;2023-07-24T03:03:39;7.93;;;3.47;;
52974;SDS011;38839;45.186;5.720;2023-07-24T03:06:07;5.75;;;3.78;;
52974;SDS011;38839;45.186;5.720;2023-07-24T03:08:33;7.30;;;4.00;;
52974;SDS011;38839;45.186;5.720;2023-07-24T03:10:59;5.47;;;3.67;;
52974;SDS011;38839;45.186;5.720;2023-07-24T03:13:25;6.57;;;3.60;;
52974;SDS011;38839;45.186;5.720;2023-07-24T03:15:53;6.30;;;3.65;;
52974;SDS011;38839;45.186;5.720;2023-07-24T03:18:20;5.38;;;3.35;;
52974;SDS011;38839;45.186;5.720;2023-07-24T03:20:46;4.63;;;3.25;;
52974;SDS011;38839;45.186;5.720;2023-07-24T03:23:11;4.30;;;3.20;;
52974;SDS011;38839;45.186;5.720;2023-07-24T03:25:36;5.18;;;3.33;;
52974;SDS011;38839;45.186;5.720;2023-07-24T03:28:02;5.50;;;3.50;;
52974;SDS011;38839;45.186;5.720;2023-07-24T03:30:27;4.82;;;3.40;;
52974;SDS011;38839;45.186;5.720;2023-07-24T03:32:53;5.72;;;3.30;;
52974;SDS011;38839;45.186;5.720;2023-07-24T03:35:18;5.13;;;3.33;;
52974;SDS011;38839;45.186;5.720;2023-07-24T03:37:43;5.55;;;3.13;;
52974;SDS011;38839;45.186;5.720;2023-07-24T03:40:09;10.93;;;3.83;;
52974;SDS011;38839;45.186;5.720;2023-07-24T03:42:34;5.20;;;3.10;;
52974;SDS011;38839;45.186;5.720;2023-07-24T03:45:00;3.90;;;2.80;;
52974;SDS011;38839;45.186;5.720;2023-07-24T03:47:25;4.95;;;3.33;;
52974;SDS011;38839;45.186;5.720;2023-07-24T03:49:51;5.90;;;3.35;;
52974;SDS011;38839;45.186;5.720;2023-07-24T03:52:16;10.05;;;3.90;;
52974;SDS011;38839;45.186;5.720;2023-07-24T03:54:42;8.13;;;3.85;;
52974;SDS011;38839;45.186;5.720;2023-07-24T03:57:07;7.43;;;3.20;;
52974;SDS011;38839;45.186;5.720;2023-07-24T03:59:33;7.32;;;3.67;;
52974;SDS011;38839;45.186;5.720;2023-07-24T04:01:58;4.65;;;3.10;;
52974;SDS011;38839;45.186;5.720;2023-07-24T04:04:24;6.22;;;3.67;;
52974;SDS011;38839;45.186;5.720;2023-07-24T04:06:49;7.25;;;4.13;;
52974;SDS011;38839;45.186;5.720;2023-07-24T04:09:15;9.25;;;4.22;;
52974;SDS011;38839;45.186;5.720;2023-07-24T04:11:41;11.60;;;5.30;;
52974;SDS011;38839;45.186;5.720;2023-07-24T04:14:07;7.20;;;4.32;;
52974;SDS011;38839;45.186;5.720;2023-07-24T04:16:33;9.18;;;4.82;;
52974;SDS011;38839;45.186;5.720;2023-07-24T04:18:58;6.82;;;4.68;;
52974;SDS011;38839;45.186;5.720;2023-07-24T04:21:23;9.60;;;5.07;;
52974;SDS011;38839;45.186;5.720;2023-07-24T04:23:49;6.68;;;4.35;;
52974;SDS011;38839;45.186;5.720;2023-07-24T04:26:14;13.15;;;4.57;;
52974;SDS011;38839;45.186;5.720;2023-07-24T04:28:39;8.93;;;4.43;;
52974;SDS011;38839;45.186;5.720;2023-07-24T04:31:05;9.30;;;4.30;;
52974;SDS011;38839;45.186;5.720;2023-07-24T04:33:30;10.68;;;4.35;;
52974;SDS011;38839;45.186;5.720;2023-07-24T04:35:55;10.10;;;4.43;;
52974;SDS011;38839;45.186;5.720;2023-07-24T04:38:21;10.80;;;4.30;;
52974;SDS011;38839;45.186;5.720;2023-07-24T04:40:47;7.05;;;4.05;;
52974;SDS011;38839;45.186;5.720;2023-07-24T04:43:12;8.15;;;4.22;;
52974;SDS011;38839;45.186;5.720;2023-07-24T04:45:38;5.80;;;3.72;;
52974;SDS011;38839;45.186;5.720;2023-07-24T04:48:03;5.93;;;3.45;;
52974;SDS011;38839;45.186;5.720;2023-07-24T04:50:29;6.68;;;3.40;;
52974;SDS011;38839;45.186;5.720;2023-07-24T04:52:55;6.80;;;3.42;;
52974;SDS011;38839;45.186;5.720;2023-07-24T04:55:21;8.93;;;4.60;;
52974;SDS011;38839;45.186;5.720;2023-07-24T04:57:46;6.65;;;4.28;;
52974;SDS011;38839;45.186;5.720;2023-07-24T05:00:12;8.05;;;4.72;;
52974;SDS011;38839;45.186;5.720;2023-07-24T05:02:38;7.20;;;4.75;;
52974;SDS011;38839;45.186;5.720;2023-07-24T05:05:03;7.95;;;5.10;;
52974;SDS011;38839;45.186;5.720;2023-07-24T05:07:29;10.02;;;5.07;;
52974;SDS011;38839;45.186;5.720;2023-07-24T05:09:54;8.15;;;5.03;;
52974;SDS011;38839;45.186;5.720;2023-07-24T05:12:19;10.82;;;4.60;;
52974;SDS011;38839;45.186;5.720;2023-07-24T05:14:45;9.18;;;4.85;;
52974;SDS011;38839;45.186;5.720;2023-07-24T05:17:10;8.98;;;4.43;;
52974;SDS011;38839;45.186;5.720;2023-07-24T05:19:35;7.63;;;4.47;;
52974;SDS011;38839;45.186;5.720;2023-07-24T05:22:01;9.10;;;4.43;;
52974;SDS011;38839;45.186;5.720;2023-07-24T05:24:26;8.05;;;4.35;;
52974;SDS011;38839;45.186;5.720;2023-07-24T05:26:51;9.18;;;4.60;;
52974;SDS011;38839;45.186;5.720;2023-07-24T05:29:17;9.38;;;5.25;;
52974;SDS011;38839;45.186;5.720;2023-07-24T05:31:42;7.82;;;4.45;;
52974;SDS011;38839;45.186;5.720;2023-07-24T05:34:08;11.95;;;5.20;;
52974;SDS011;38839;45.186;5.720;2023-07-24T05:36:33;9.02;;;4.97;;
52974;SDS011;38839;45.186;5.720;2023-07-24T05:38:59;9.45;;;5.15;;
52974;SDS011;38839;45.186;5.720;2023-07-24T05:41:24;7.50;;;4.82;;
52974;SDS011;38839;45.186;5.720;2023-07-24T05:43:50;7.70;;;4.43;;
52974;SDS011;38839;45.186;5.720;2023-07-24T05:46:15;9.93;;;5.35;;
52974;SDS011;38839;45.186;5.720;2023-07-24T05:48:41;11.55;;;5.45;;
52974;SDS011;38839;45.186;5.720;2023-07-24T05:51:06;12.10;;;6.00;;
52974;SDS011;38839;45.186;5.720;2023-07-24T05:53:31;7.32;;;5.18;;
52974;SDS011;38839;45.186;5.720;2023-07-24T05:55:58;11.32;;;5.25;;
52974;SDS011;38839;45.186;5.720;2023-07-24T05:58:24;8.10;;;5.18;;
52974;SDS011;38839;45.186;5.720;2023-07-24T06:00:50;9.23;;;5.63;;
52974;SDS011;38839;45.186;5.720;2023-07-24T06:03:15;9.85;;;5.35;;
52974;SDS011;38839;45.186;5.720;2023-07-24T06:05:40;8.45;;;5.00;;
52974;SDS011;38839;45.186;5.720;2023-07-24T06:08:06;9.43;;;5.40;;
52974;SDS011;38839;45.186;5.720;2023-07-24T06:10:33;10.23;;;5.28;;
52974;SDS011;38839;45.186;5.720;2023-07-24T06:12:59;9.77;;;4.68;;
52974;SDS011;38839;45.186;5.720;2023-07-24T06:15:24;9.75;;;5.53;;
52974;SDS011;38839;45.186;5.720;2023-07-24T06:17:50;8.10;;;4.70;;
52974;SDS011;38839;45.186;5.720;2023-07-24T06:20:15;10.80;;;5.10;;
52974;SDS011;38839;45.186;5.720;2023-07-24T06:22:40;8.55;;;4.72;;
52974;SDS011;38839;45.186;5.720;2023-07-24T06:25:06;7.45;;;4.47;;
52974;SDS011;38839;45.186;5.720;2023-07-24T06:27:32;8.25;;;4.43;;
52974;SDS011;38839;45.186;5.720;2023-07-24T06:29:57;15.40;;;4.70;;
52974;SDS011;38839;45.186;5.720;2023-07-24T06:32:22;6.80;;;4.10;;
52974;SDS011;38839;45.186;5.720;2023-07-24T06:34:48;6.05;;;4.13;;
52974;SDS011;38839;45.186;5.720;2023-07-24T06:37:13;4.90;;;4.05;;
52974;SDS011;38839;45.186;5.720;2023-07-24T06:39:38;7.28;;;4.22;;
52974;SDS011;38839;45.186;5.720;2023-07-24T06:42:04;8.45;;;4.32;;
52974;SDS011;38839;45.186;5.720;2023-07-24T06:44:29;7.85;;;4.72;;
52974;SDS011;38839;45.186;5.720;2023-07-24T06:46:55;9.60;;;5.30;;
52974;SDS011;38839;45.186;5.720;2023-07-24T06:49:20;8.40;;;5.60;;
52974;SDS011;38839;45.186;5.720;2023-07-24T06:51:45;7.53;;;5.13;;
52974;SDS011;38839;45.186;5.720;2023-07-24T06:54:11;10.07;;;5.20;;
52974;SDS011;38839;45.186;5.720;2023-07-24T06:56:36;7.18;;;4.75;;
52974;SDS011;38839;45.186;5.720;2023-07-24T06:59:01;8.05;;;5.15;;
52974;SDS011;38839;45.186;5.720;2023-07-24T07:01:27;7.72;;;5.40;;
52974;SDS011;38839;45.186;5.720;2023-07-24T07:03:53;11.80;;;5.28;;
52974;SDS011;38839;45.186;5.720;2023-07-24T07:06:18;8.23;;;4.60;;
52974;SDS011;38839;45.186;5.720;2023-07-24T07:08:43;7.55;;;4.45;;
52974;SDS011;38839;45.186;5.720;2023-07-24T07:11:09;8.07;;;4.80;;
52974;SDS011;38839;45.186;5.720;2023-07-24T07:13:34;7.07;;;4.78;;
52974;SDS011;38839;45.186;5.720;2023-07-24T07:16:00;7.10;;;4.75;;
52974;SDS011;38839;45.186;5.720;2023-07-24T07:18:25;6.43;;;4.15;;
52974;SDS011;38839;45.186;5.720;2023-07-24T07:20:52;6.20;;;4.47;;
52974;SDS011;38839;45.186;5.720;2023-07-24T07:23:19;7.78;;;4.43;;
52974;SDS011;38839;45.186;5.720;2023-07-24T07:25:44;6.80;;;4.10;;
52974;SDS011;38839;45.186;5.720;2023-07-24T07:28:13;9.38;;;4.68;;
52974;SDS011;38839;45.186;5.720;2023-07-24T07:30:40;8.75;;;4.57;;
52974;SDS011;38839;45.186;5.720;2023-07-24T07:33:06;8.40;;;4.82;;
52974;SDS011;38839;45.186;5.720;2023-07-24T07:35:32;8.55;;;5.07;;
52974;SDS011;38839;45.186;5.720;2023-07-24T07:37:58;8.00;;;4.45;;
52974;SDS011;38839;45.186;5.720;2023-07-24T07:40:23;6.97;;;4.32;;
52974;SDS011;38839;45.186;5.720;2023-07-24T07:42:49;7.32;;;4.85;;
52974;SDS011;38839;45.186;5.720;2023-07-24T07:45:14;8.98;;;4.70;;
52974;SDS011;38839;45.186;5.720;2023-07-24T07:47:40;10.98;;;5.57;;
52974;SDS011;38839;45.186;5.720;2023-07-24T07:50:05;7.60;;;4.45;;
52974;SDS011;38839;45.186;5.720;2023-07-24T07:52:31;9.60;;;4.93;;
52974;SDS011;38839;45.186;5.720;2023-07-24T07:54:56;6.97;;;4.93;;
52974;SDS011;38839;45.186;5.720;2023-07-24T07:57:22;9.23;;;5.25;;
52974;SDS011;38839;45.186;5.720;2023-07-24T07:59:47;7.03;;;5.45;;
52974;SDS011;38839;45.186;5.720;2023-07-24T08:02:12;7.28;;;5.30;;
52974;SDS011;38839;45.186;5.720;2023-07-24T08:04:38;10.85;;;5.65;;
52974;SDS011;38839;45.186;5.720;2023-07-24T08:07:03;9.82;;;5.53;;
52974;SDS011;38839;45.186;5.720;2023-07-24T08:09:29;13.75;;;5.50;;
52974;SDS011;38839;45.186;5.720;2023-07-24T08:11:54;8.38;;;5.05;;
52974;SDS011;38839;45.186;5.720;2023-07-24T08:14:20;11.48;;;5.47;;
52974;SDS011;38839;45.186;5.720;2023-07-24T08:16:48;9.43;;;5.38;;
52974;SDS011;38839;45.186;5.720;2023-07-24T08:19:14;10.48;;;5.35;;
52974;SDS011;38839;45.186;5.720;2023-07-24T08:21:40;8.70;;;5.00;;
52974;SDS011;38839;45.186;5.720;2023-07-24T08:24:05;7.95;;;4.53;;
52974;SDS011;38839;45.186;5.720;2023-07-24T08:26:31;9.48;;;4.68;;
52974;SDS011;38839;45.186;5.720;2023-07-24T08:28:56;9.20;;;4.72;;
52974;SDS011;38839;45.186;5.720;2023-07-24T08:31:22;9.95;;;4.88;;
52974;SDS011;38839;45.186;5.720;2023-07-24T08:33:47;6.68;;;4.68;;
52974;SDS011;38839;45.186;5.720;2023-07-24T08:36:12;8.57;;;4.82;;
52974;SDS011;38839;45.186;5.720;2023-07-24T08:38:38;6.72;;;4.50;;
52974;SDS011;38839;45.186;5.720;2023-07-24T08:41:07;8.43;;;4.38;;
52974;SDS011;38839;45.186;5.720;2023-07-24T08:43:34;10.38;;;4.93;;
52974;SDS011;38839;45.186;5.720;2023-07-24T08:46:01;9.05;;;4.95;;
52974;SDS011;38839;45.186;5.720;2023-07-24T08:48:32;7.10;;;4.55;;
52974;SDS011;38839;45.186;5.720;2023-07-24T08:51:01;9.23;;;4.43;;
52974;SDS011;38839;45.186;5.720;2023-07-24T08:53:32;7.75;;;4.65;;
52974;SDS011;38839;45.186;5.720;2023-07-24T08:56:00;8.88;;;4.68;;
52974;SDS011;38839;45.186;5.720;2023-07-24T08:58:27;9.32;;;4.70;;
52974;SDS011;38839;45.186;5.720;2023-07-24T09:00:53;8.52;;;4.70;;
52974;SDS011;38839;45.186;5.720;2023-07-24T09:03:18;6.63;;;4.30;;
52974;SDS011;38839;45.186;5.720;2023-07-24T09:05:44;7.55;;;4.90;;
52974;SDS011;38839;45.186;5.720;2023-07-24T09:08:10;9.07;;;4.88;;
52974;SDS011;38839;45.186;5.720;2023-07-24T09:10:36;7.60;;;4.60;;
52974;SDS011;38839;45.186;5.720;2023-07-24T09:13:02;8.32;;;4.43;;
52974;SDS011;38839;45.186;5.720;2023-07-24T09:15:29;4.95;;;4.15;;
52974;SDS011;38839;45.186;5.720;2023-07-24T09:18:04;8.30;;;4.38;;
52974;SDS011;38839;45.186;5.720;2023-07-24T09:20:37;11.70;;;4.40;;
52974;SDS011;38839;45.186;5.720;2023-07-24T09:23:07;5.82;;;4.20;;
52974;SDS011;38839;45.186;5.720;2023-07-24T09:25:34;5.28;;;3.65;;
52974;SDS011;38839;45.186;5.720;2023-07-24T09:28:00;8.18;;;3.72;;
52974;SDS011;38839;45.186;5.720;2023-07-24T09:30:26;9.10;;;4.22;;
52974;SDS011;38839;45.186;5.720;2023-07-24T09:32:54;7.18;;;3.90;;
52974;SDS011;38839;45.186;5.720;2023-07-24T09:35:20;6.57;;;4.32;;
52974;SDS011;38839;45.186;5.720;2023-07-24T09:38:00;10.15;;;5.00;;
52974;SDS011;38839;45.186;5.720;2023-07-24T09:40:27;9.30;;;4.22;;
52974;SDS011;38839;45.186;5.720;2023-07-24T09:42:52;5.45;;;4.00;;
52974;SDS011;38839;45.186;5.720;2023-07-24T09:45:17;6.90;;;4.30;;
52974;SDS011;38839;45.186;5.720;2023-07-24T09:47:43;6.07;;;3.85;;
52974;SDS011;38839;45.186;5.720;2023-07-24T09:50:09;6.50;;;4.70;;
52974;SDS011;38839;45.186;5.720;2023-07-24T09:52:35;8.32;;;4.43;;
52974;SDS011;38839;45.186;5.720;2023-07-24T09:55:19;5.43;;;4.20;;
52974;SDS011;38839;45.186;5.720;2023-07-24T09:57:50;7.13;;;4.03;;
52974;SDS011;38839;45.186;5.720;2023-07-24T10:00:18;8.32;;;4.68;;
52974;SDS011;38839;45.186;5.720;2023-07-24T10:02:43;5.50;;;3.78;;
52974;SDS011;38839;45.186;5.720;2023-07-24T10:05:09;8.05;;;4.45;;
52974;SDS011;38839;45.186;5.720;2023-07-24T10:07:36;7.43;;;4.38;;
52974;SDS011;38839;45.186;5.720;2023-07-24T10:10:02;6.70;;;3.90;;
52974;SDS011;38839;45.186;5.720;2023-07-24T10:12:29;8.30;;;4.63;;
52974;SDS011;38839;45.186;5.720;2023-07-24T10:14:56;6.65;;;4.00;;
52974;SDS011;38839;45.186;5.720;2023-07-24T10:17:34;9.27;;;4.80;;
52974;SDS011;38839;45.186;5.720;2023-07-24T10:20:08;6.65;;;4.15;;
52974;SDS011;38839;45.186;5.720;2023-07-24T10:22:34;6.32;;;4.10;;
52974;SDS011;38839;45.186;5.720;2023-07-24T10:25:02;8.53;;;4.60;;
52974;SDS011;38839;45.186;5.720;2023-07-24T10:27:28;7.97;;;3.90;;
52974;SDS011;38839;45.186;5.720;2023-07-24T10:30:00;7.38;;;4.50;;
52974;SDS011;38839;45.186;5.720;2023-07-24T10:32:27;6.88;;;4.20;;
52974;SDS011;38839;45.186;5.720;2023-07-24T10:34:59;6.30;;;4.20;;
52974;SDS011;38839;45.186;5.720;2023-07-24T10:37:34;5.88;;;4.25;;
52974;SDS011;38839;45.186;5.720;2023-07-24T10:40:01;6.45;;;3.78;;
52974;SDS011;38839;45.186;5.720;2023-07-24T10:42:28;5.43;;;3.53;;
52974;SDS011;38839;45.186;5.720;2023-07-24T10:45:04;5.70;;;3.58;;
52974;SDS011;38839;45.186;5.720;2023-07-24T10:47:31;6.80;;;3.72;;
52974;SDS011;38839;45.186;5.720;2023-07-24T10:49:57;6.35;;;3.67;;
52974;SDS011;38839;45.186;5.720;2023-07-24T10:52:32;5.45;;;3.58;;
52974;SDS011;38839;45.186;5.720;2023-07-24T10:55:02;4.90;;;3.70;;
52974;SDS011;38839;45.186;5.720;2023-07-24T10:57:30;6.78;;;3.67;;
52974;SDS011;38839;45.186;5.720;2023-07-24T10:59:56;7.72;;;4.38;;
52974;SDS011;38839;45.186;5.720;2023-07-24T11:02:21;7.65;;;4.00;;
52974;SDS011;38839;45.186;5.720;2023-07-24T11:04:47;4.80;;;3.80;;
52974;SDS011;38839;45.186;5.720;2023-07-24T11:07:13;5.28;;;3.50;;
52974;SDS011;38839;45.186;5.720;2023-07-24T11:09:40;8.35;;;3.72;;
52974;SDS011;38839;45.186;5.720;2023-07-24T11:12:09;8.88;;;3.85;;
52974;SDS011;38839;45.186;5.720;2023-07-24T11:14:45;6.55;;;3.88;;
52974;SDS011;38839;45.186;5.720;2023-07-24T11:17:11;7.28;;;4.35;;
52974;SDS011;38839;45.186;5.720;2023-07-24T11:19:37;6.38;;;3.80;;
52974;SDS011;38839;45.186;5.720;2023-07-24T11:22:02;5.30;;;3.70;;
52974;SDS011;38839;45.186;5.720;2023-07-24T11:24:28;5.57;;;3.53;;
52974;SDS011;38839;45.186;5.720;2023-07-24T11:26:54;6.60;;;4.15;;
52974;SDS011;38839;45.186;5.720;2023-07-24T11:29:19;7.10;;;3.95;;
52974;SDS011;38839;45.186;5.720;2023-07-24T11:31:45;5.85;;;3.75;;
52974;SDS011;38839;45.186;5.720;2023-07-24T11:34:10;5.07;;;3.60;;
52974;SDS011;38839;45.186;5.720;2023-07-24T11:36:35;4.05;;;3.17;;
52974;SDS011;38839;45.186;5.720;2023-07-24T11:39:01;5.40;;;3.72;;
52974;SDS011;38839;45.186;5.720;2023-07-24T11:41:26;5.43;;;3.95;;
52974;SDS011;38839;45.186;5.720;2023-07-24T11:43:52;6.88;;;3.63;;
52974;SDS011;38839;45.186;5.720;2023-07-24T11:46:24;5.57;;;3.58;;
52974;SDS011;38839;45.186;5.720;2023-07-24T11:48:50;5.70;;;3.75;;
52974;SDS011;38839;45.186;5.720;2023-07-24T11:51:18;7.10;;;3.90;;
52974;SDS011;38839;45.186;5.720;2023-07-24T11:53:44;10.07;;;4.30;;
52974;SDS011;38839;45.186;5.720;2023-07-24T11:56:13;7.78;;;4.07;;
52974;SDS011;38839;45.186;5.720;2023-07-24T11:58:40;4.47;;;3.70;;
52974;SDS011;38839;45.186;5.720;2023-07-24T12:01:05;6.72;;;3.95;;
52974;SDS011;38839;45.186;5.720;2023-07-24T12:03:30;6.88;;;3.75;;
52974;SDS011;38839;45.186;5.720;2023-07-24T12:05:56;5.25;;;3.75;;
52974;SDS011;38839;45.186;5.720;2023-07-24T12:08:34;5.53;;;4.10;;
52974;SDS011;38839;45.186;5.720;2023-07-24T12:11:00;6.40;;;3.78;;
52974;SDS011;38839;45.186;5.720;2023-07-24T12:13:26;5.18;;;3.58;;
52974;SDS011;38839;45.186;5.720;2023-07-24T12:15:52;7.93;;;4.05;;
52974;SDS011;38839;45.186;5.720;2023-07-24T12:18:18;7.78;;;4.50;;
52974;SDS011;38839;45.186;5.720;2023-07-24T12:20:43;7.32;;;3.97;;
52974;SDS011;38839;45.186;5.720;2023-07-24T12:23:09;7.03;;;4.30;;
52974;SDS011;38839;45.186;5.720;2023-07-24T12:25:34;5.60;;;3.78;;
52974;SDS011;38839;45.186;5.720;2023-07-24T12:28:00;5.57;;;3.80;;
52974;SDS011;38839;45.186;5.720;2023-07-24T12:30:25;9.55;;;4.47;;
52974;SDS011;38839;45.186;5.720;2023-07-24T12:32:51;10.73;;;4.38;;
52974;SDS011;38839;45.186;5.720;2023-07-24T12:35:17;6.63;;;4.53;;
52974;SDS011;38839;45.186;5.720;2023-07-24T12:37:46;4.85;;;3.70;;
52974;SDS011;38839;45.186;5.720;2023-07-24T12:40:11;7.53;;;3.95;;
52974;SDS011;38839;45.186;5.720;2023-07-24T12:42:37;8.00;;;4.28;;
52974;SDS011;38839;45.186;5.720;2023-07-24T12:45:02;8.07;;;4.82;;
52974;SDS011;38839;45.186;5.720;2023-07-24T12:47:28;5.40;;;3.53;;
52974;SDS011;38839;45.186;5.720;2023-07-24T12:49:54;9.68;;;3.97;;
52974;SDS011;38839;45.186;5.720;2023-07-24T12:52:21;6.53;;;4.13;;
52974;SDS011;38839;45.186;5.720;2023-07-24T12:54:46;6.68;;;4.00;;
52974;SDS011;38839;45.186;5.720;2023-07-24T12:57:12;6.28;;;4.72;;
52974;SDS011;38839;45.186;5.720;2023-07-24T12:59:37;7.60;;;4.07;;
52974;SDS011;38839;45.186;5.720;2023-07-24T13:02:03;6.22;;;3.80;;
52974;SDS011;38839;45.186;5.720;2023-07-24T13:04:28;5.63;;;4.18;;
52974;SDS011;38839;45.186;5.720;2023-07-24T13:06:53;9.60;;;4.78;;
52974;SDS011;38839;45.186;5.720;2023-07-24T13:09:19;8.77;;;4.25;;
52974;SDS011;38839;45.186;5.720;2023-07-24T13:11:45;6.10;;;4.25;;
52974;SDS011;38839;45.186;5.720;2023-07-24T13:14:13;6.65;;;4.53;;
52974;SDS011;38839;45.186;5.720;2023-07-24T13:16:39;9.35;;;4.50;;
52974;SDS011;38839;45.186;5.720;2023-07-24T13:19:04;8.30;;;4.68;;
52974;SDS011;38839;45.186;5.720;2023-07-24T13:21:30;7.50;;;4.50;;
52974;SDS011;38839;45.186;5.720;2023-07-24T13:23:55;9.07;;;4.55;;
52974;SDS011;38839;45.186;5.720;2023-07-24T13:26:21;6.70;;;4.93;;
52974;SDS011;38839;45.186;5.720;2023-07-24T13:28:46;7.65;;;4.10;;
52974;SDS011;38839;45.186;5.720;2023-07-24T13:31:15;6.32;;;4.25;;
52974;SDS011;38839;45.186;5.720;2023-07-24T13:33:44;7.68;;;4.55;;
52974;SDS011;38839;45.186;5.720;2023-07-24T13:36:10;5.85;;;4.40;;
52974;SDS011;38839;45.186;5.720;2023-07-24T13:38:35;9.80;;;4.90;;
52974;SDS011;38839;45.186;5.720;2023-07-24T13:41:01;8.00;;;4.63;;
52974;SDS011;38839;45.186;5.720;2023-07-24T13:43:27;8.02;;;4.53;;
52974;SDS011;38839;45.186;5.720;2023-07-24T13:45:54;6.78;;;4.55;;
52974;SDS011;38839;45.186;5.720;2023-07-24T13:48:20;12.18;;;4.85;;
52974;SDS011;38839;45.186;5.720;2023-07-24T13:50:45;6.45;;;4.18;;
52974;SDS011;38839;45.186;5.720;2023-07-24T13:53:10;10.25;;;4.72;;
52974;SDS011;38839;45.186;5.720;2023-07-24T13:55:37;6.65;;;4.07;;
52974;SDS011;38839;45.186;5.720;2023-07-24T13:58:02;4.35;;;3.95;;
52974;SDS011;38839;45.186;5.720;2023-07-24T14:00:28;6.53;;;4.53;;
52974;SDS011;38839;45.186;5.720;2023-07-24T14:02:53;6.93;;;4.00;;
52974;SDS011;38839;45.186;5.720;2023-07-24T14:05:18;6.50;;;4.05;;
52974;SDS011;38839;45.186;5.720;2023-07-24T14:07:44;6.35;;;4.38;;
52974;SDS011;38839;45.186;5.720;2023-07-24T14:10:09;9.45;;;4.63;;
52974;SDS011;38839;45.186;5.720;2023-07-24T14:12:35;8.60;;;4.05;;
52974;SDS011;38839;45.186;5.720;2023-07-24T14:15:00;7.20;;;4.25;;
52974;SDS011;38839;45.186;5.720;2023-07-24T14:17:25;6.18;;;4.10;;
52974;SDS011;38839;45.186;5.720;2023-07-24T14:19:52;6.10;;;3.92;;
52974;SDS011;38839;45.186;5.720;2023-07-24T14:22:17;8.15;;;4.40;;
52974;SDS011;38839;45.186;5.720;2023-07-24T14:24:42;5.10;;;3.80;;
52974;SDS011;38839;45.186;5.720;2023-07-24T14:27:08;5.78;;;3.85;;
52974;SDS011;38839;45.186;5.720;2023-07-24T14:29:33;6.75;;;4.20;;
52974;SDS011;38839;45.186;5.720;2023-07-24T14:31:58;6.93;;;3.65;;
52974;SDS011;38839;45.186;5.720;2023-07-24T14:34:24;6.95;;;3.78;;
52974;SDS011;38839;45.186;5.720;2023-07-24T14:36:49;9.27;;;3.85;;
52974;SDS011;38839;45.186;5.720;2023-07-24T14:39:15;7.30;;;4.63;;
52974;SDS011;38839;45.186;5.720;2023-07-24T14:41:40;6.63;;;4.10;;
52974;SDS011;38839;45.186;5.720;2023-07-24T14:44:05;6.90;;;4.35;;